createdAt,value
2022-08-24T00:00:50.504Z,19.39
2022-08-24T00:05:53.615Z,19.53
2022-08-24T00:10:55.549Z,19.43
2022-08-24T00:15:58.206Z,19.54
2022-08-24T00:21:03.012Z,19.48
2022-08-24T00:26:06.270Z,19.43
2022-08-24T00:31:08.351Z,19.40
2022-08-24T00:36:10.593Z,19.37
2022-08-24T00:41:14.939Z,19.33
2022-08-24T00:46:27.888Z,19.25
2022-08-24T00:51:43.855Z,19.22
2022-08-24T00:56:54.356Z,19.14
2022-08-24T01:01:59.151Z,19.17
2022-08-24T01:07:10.170Z,18.98
2022-08-24T01:12:12.080Z,18.93
2022-08-24T01:17:38.761Z,19.01
2022-08-24T01:23:07.846Z,19.01
2022-08-24T01:28:21.765Z,18.99
2022-08-24T01:33:32.890Z,18.93
2022-08-24T01:38:35.154Z,18.80
2022-08-24T01:43:37.358Z,18.73
2022-08-24T01:48:39.266Z,18.77
2022-08-24T01:53:40.988Z,18.70
2022-08-24T01:58:49.279Z,18.66
2022-08-24T02:03:51.980Z,18.64
2022-08-24T02:08:53.942Z,18.61
2022-08-24T02:13:55.697Z,18.54
2022-08-24T02:18:58.305Z,18.80
2022-08-24T02:24:00.319Z,18.78
2022-08-24T02:29:03.843Z,18.88
2022-08-24T02:34:06.121Z,18.87
2022-08-24T02:39:09.388Z,18.98
2022-08-24T02:44:11.284Z,19.13
2022-08-24T02:49:13.088Z,19.20
2022-08-24T02:54:18.057Z,19.19
2022-08-24T02:59:22.310Z,19.24
2022-08-24T03:04:24.229Z,19.17
2022-08-24T03:09:25.955Z,18.98
2022-08-24T03:14:30.741Z,18.93
2022-08-24T03:19:32.448Z,18.88
2022-08-24T03:24:35.314Z,18.84
2022-08-24T03:29:37.048Z,18.81
2022-08-24T03:34:38.748Z,18.77
2022-08-24T03:39:40.631Z,18.79
2022-08-24T03:44:45.560Z,18.69
2022-08-24T03:49:47.269Z,18.60
2022-08-24T03:54:49.068Z,18.51
2022-08-24T03:59:51.230Z,18.48
2022-08-24T04:04:53.387Z,18.42
2022-08-24T04:09:55.122Z,18.47
2022-08-24T04:14:56.914Z,18.37
2022-08-24T04:19:59.040Z,18.36
2022-08-24T04:25:01.032Z,18.35
2022-08-24T04:30:04.082Z,18.24
2022-08-24T04:35:07.007Z,18.27
2022-08-24T04:40:10.049Z,18.05
2022-08-24T04:45:12.374Z,18.02
2022-08-24T04:50:14.140Z,18.23
2022-08-24T04:55:18.198Z,18.28
2022-08-24T05:00:20.313Z,18.38
2022-08-24T05:05:22.018Z,18.37
2022-08-24T05:10:24.065Z,18.52
2022-08-24T05:15:26.142Z,18.52
2022-08-24T05:20:29.212Z,18.64
2022-08-24T05:25:31.002Z,18.58
2022-08-24T05:30:33.569Z,18.55
2022-08-24T05:35:43.846Z,18.74
2022-08-24T05:40:46.366Z,18.87
2022-08-24T05:45:48.090Z,19.02
2022-08-24T05:50:56.445Z,19.24
2022-08-24T05:55:58.190Z,19.46
2022-08-24T06:01:12.962Z,19.57
2022-08-24T06:06:17.799Z,20.11
2022-08-24T06:11:32.755Z,20.88
2022-08-24T06:16:42.554Z,21.47
2022-08-24T06:21:48.046Z,22.56
2022-08-24T06:27:08.207Z,23.87
2022-08-24T06:32:09.908Z,25.21
2022-08-24T06:37:11.725Z,25.74
2022-08-24T06:42:13.629Z,25.21
2022-08-24T06:47:15.354Z,24.43
2022-08-24T06:52:17.075Z,23.80
2022-08-24T06:57:19.281Z,23.25
2022-08-24T07:02:21.250Z,22.57
2022-08-24T07:07:23.659Z,22.17
2022-08-24T07:12:26.994Z,21.72
2022-08-24T07:17:28.918Z,21.47
2022-08-24T07:22:30.666Z,21.10
2022-08-24T07:32:36.146Z,21.28
2022-08-24T07:37:41.335Z,21.37
2022-08-24T07:42:47.409Z,21.65
2022-08-24T07:47:55.589Z,21.78
2022-08-24T07:52:57.912Z,21.98
2022-08-24T07:57:59.980Z,22.27
2022-08-24T08:03:04.928Z,22.47
2022-08-24T08:08:07.436Z,23.00
2022-08-24T08:13:09.222Z,23.41
2022-08-24T08:18:13.236Z,23.53
2022-08-24T08:23:34.007Z,24.47
2022-08-24T08:28:36.315Z,25.61
2022-08-24T08:33:38.549Z,25.73
2022-08-24T08:38:42.990Z,25.38
2022-08-24T08:44:06.418Z,25.16
2022-08-24T08:49:51.410Z,24.77
2022-08-24T08:55:48.470Z,24.63
2022-08-24T09:01:11.883Z,24.93
2022-08-24T09:06:54.367Z,26.75
2022-08-24T09:13:18.238Z,26.25
2022-08-24T09:18:49.971Z,25.34
2022-08-24T09:24:11.800Z,24.71
2022-08-24T09:29:45.667Z,24.09
2022-08-24T09:35:03.981Z,23.98
2022-08-24T09:40:55.847Z,24.03
2022-08-24T09:46:31.290Z,23.99
2022-08-24T09:52:40.524Z,23.71
2022-08-24T09:58:21.806Z,23.66
2022-08-24T10:04:17.678Z,23.78
2022-08-24T10:10:13.760Z,23.95
2022-08-24T10:15:28.048Z,23.89
2022-08-24T10:21:09.091Z,23.83
2022-08-24T10:26:21.762Z,23.98
2022-08-24T10:32:07.594Z,24.27
2022-08-24T10:37:52.221Z,24.32
2022-08-24T10:43:46.211Z,24.70
2022-08-24T10:49:37.511Z,24.86
2022-08-24T10:54:39.792Z,25.37
2022-08-24T11:00:12.830Z,25.53
2022-08-24T11:05:50.128Z,25.39
2022-08-24T11:11:27.309Z,25.45
2022-08-24T11:16:43.345Z,25.47
2022-08-24T11:21:55.252Z,25.38
2022-08-24T11:27:18.133Z,24.68
2022-08-24T11:32:54.901Z,25.18
2022-08-24T11:38:34.448Z,25.24
2022-08-24T11:44:04.039Z,25.73
2022-08-24T11:50:05.934Z,25.78
2022-08-24T11:55:46.799Z,25.66
2022-08-24T12:01:05.315Z,25.77
2022-08-24T12:06:47.350Z,25.51
2022-08-24T12:12:17.880Z,25.36
2022-08-24T12:17:44.916Z,25.45
2022-08-24T12:22:51.883Z,24.25
2022-08-24T12:27:59.982Z,23.34
2022-08-24T12:33:10.947Z,24.22
2022-08-24T12:38:41.518Z,24.41
2022-08-24T12:44:14.814Z,24.38
2022-08-24T12:49:39.144Z,24.70
2022-08-24T12:55:52.605Z,25.38
2022-08-24T13:00:57.010Z,25.76
2022-08-24T13:06:11.700Z,25.53
2022-08-24T13:11:31.668Z,25.41
2022-08-24T13:16:58.341Z,25.54
2022-08-24T13:22:10.380Z,26.07
2022-08-24T13:27:11.934Z,26.46
2022-08-24T13:32:35.836Z,26.53
2022-08-24T13:37:38.542Z,25.78
2022-08-24T13:43:18.034Z,26.56
2022-08-24T13:49:39.214Z,26.04
2022-08-24T13:55:49.019Z,25.90
2022-08-24T14:01:19.001Z,26.08
2022-08-24T14:06:38.237Z,26.17
2022-08-24T14:12:11.560Z,26.41
2022-08-24T14:17:55.340Z,26.41
2022-08-24T14:23:25.305Z,26.21
2022-08-24T14:28:38.385Z,26.01
2022-08-24T14:34:26.221Z,25.80
2022-08-24T14:40:37.090Z,25.59
2022-08-24T14:46:10.766Z,25.67
2022-08-24T14:52:03.717Z,25.55
2022-08-24T14:57:36.077Z,25.48
2022-08-24T15:03:14.725Z,25.42
2022-08-24T15:08:42.927Z,25.56
2022-08-24T15:13:56.280Z,25.58
2022-08-24T15:19:32.534Z,25.65
2022-08-24T15:24:59.200Z,25.73
2022-08-24T15:30:08.029Z,25.77
2022-08-24T15:35:34.311Z,25.84
2022-08-24T15:40:36.138Z,26.02
2022-08-24T15:45:51.731Z,26.02
2022-08-24T15:50:55.920Z,26.01
2022-08-24T15:55:58.576Z,25.81
2022-08-24T16:01:28.015Z,25.82
2022-08-24T16:06:32.703Z,25.75
2022-08-24T16:11:40.452Z,25.68
2022-08-24T16:16:45.652Z,25.63
2022-08-24T16:22:06.646Z,25.50
2022-08-24T16:27:16.180Z,25.35
2022-08-24T16:32:50.118Z,25.33
2022-08-24T16:37:55.615Z,25.24
2022-08-24T16:42:57.370Z,25.11
2022-08-24T16:47:59.094Z,25.11
2022-08-24T16:53:01.037Z,24.70
2022-08-24T16:58:04.409Z,24.69
2022-08-24T17:03:06.630Z,24.61
2022-08-24T17:08:08.597Z,24.55
2022-08-24T17:13:27.723Z,24.49
2022-08-24T17:18:35.460Z,24.26
2022-08-24T17:23:40.647Z,24.41
2022-08-24T17:28:47.274Z,24.48
2022-08-24T17:33:49.180Z,24.34
2022-08-24T17:38:56.297Z,24.28
2022-08-24T17:43:58.493Z,24.29
2022-08-24T17:49:00.355Z,24.17
2022-08-24T17:54:02.097Z,24.13
2022-08-24T17:59:20.772Z,24.16
2022-08-24T18:04:27.405Z,23.98
2022-08-24T18:10:00.253Z,24.01
2022-08-24T18:15:01.997Z,23.82
2022-08-24T18:20:08.465Z,23.83
2022-08-24T18:25:13.540Z,23.71
2022-08-24T18:30:29.041Z,23.61
2022-08-24T18:35:32.995Z,23.52
2022-08-24T18:40:35.197Z,23.52
2022-08-24T18:45:38.827Z,23.44
2022-08-24T18:50:42.227Z,23.37
2022-08-24T18:55:46.158Z,23.28
2022-08-24T19:00:51.141Z,23.24
2022-08-24T19:05:53.748Z,23.21
2022-08-24T19:10:56.291Z,23.12
2022-08-24T19:15:58.102Z,23.00
2022-08-24T19:21:00.192Z,23.03
2022-08-24T19:26:04.080Z,22.93
2022-08-24T19:31:13.030Z,22.93
2022-08-24T19:36:15.195Z,22.85
2022-08-24T19:41:18.781Z,22.79
2022-08-24T19:46:22.492Z,22.72
2022-08-24T19:51:24.698Z,22.65
2022-08-24T19:56:26.463Z,22.56
2022-08-24T20:01:36.593Z,22.44
2022-08-24T20:06:40.811Z,22.52
2022-08-24T20:11:42.930Z,22.41
2022-08-24T20:16:44.928Z,22.30
2022-08-24T20:21:46.657Z,22.27
2022-08-24T20:26:48.354Z,22.16
2022-08-24T20:31:52.346Z,22.06
2022-08-24T20:36:54.150Z,22.01
2022-08-24T20:41:57.074Z,21.95
2022-08-24T20:46:59.071Z,21.98
2022-08-24T20:52:00.856Z,21.96
2022-08-24T20:57:04.769Z,21.85
2022-08-24T21:02:06.520Z,21.87
2022-08-24T21:07:12.217Z,21.86
2022-08-24T21:12:14.054Z,21.90
2022-08-24T21:17:15.804Z,21.76
2022-08-24T21:22:18.343Z,21.75
2022-08-24T21:27:20.192Z,21.68
2022-08-24T21:32:40.306Z,21.62
2022-08-24T21:37:42.510Z,21.51
2022-08-24T21:42:44.349Z,21.46
2022-08-24T21:47:46.531Z,21.52
2022-08-24T21:52:51.237Z,21.42
2022-08-24T21:57:55.398Z,21.40
2022-08-24T22:02:57.198Z,21.29
2022-08-24T22:07:59.037Z,21.29
2022-08-24T22:13:04.010Z,21.21
2022-08-24T22:18:06.383Z,21.27
2022-08-24T22:23:08.248Z,21.18
2022-08-24T22:28:10.370Z,21.12
2022-08-24T22:33:12.063Z,21.10
2022-08-24T22:38:13.920Z,21.02
2022-08-24T22:43:15.602Z,20.95
2022-08-24T22:48:17.418Z,20.97
2022-08-24T22:53:19.361Z,20.87
2022-08-24T22:58:21.069Z,20.85
2022-08-24T23:03:25.833Z,20.91
2022-08-24T23:08:27.568Z,20.93
2022-08-24T23:13:29.292Z,20.91
2022-08-24T23:18:49.438Z,20.85
2022-08-24T23:23:51.752Z,20.89
2022-08-24T23:28:54.116Z,20.85
2022-08-24T23:33:57.908Z,20.85
2022-08-24T23:39:00.893Z,20.90
2022-08-24T23:44:09.608Z,20.74
2022-08-24T23:49:14.884Z,20.65
2022-08-24T23:54:18.614Z,20.57
2022-08-24T23:59:29.489Z,20.60
